Погода Гигантна неделю

Ростовская область, Россия

18 - 24 мая
  • 18мая
    Сегодня
    +8°
    +19°
    Облачно с прояснениями
    ВремяПогодаТемператураВлажностьДавлениеВетер, м/сВероятность осадков
    00:00Ясно и безоблачно+8°C61 %759 мм1.7 м/с2 %
    03:00Ясно и безоблачно+6°C70 %759 мм1.6 м/с2 %
    06:00Ясно и безоблачно+8°C72 %759 мм1.5 м/с2 %
    09:00Ясно и безоблачно+15°C53 %760 мм2.9 м/с2 %
    12:00Пасмурно, сплошная облачность+17°C42 %759 мм2.9 м/с1 %
    15:00Облачно с прояснениями+18°C44 %758 мм2.5 м/с2 %
    18:00Облачно с прояснениями+17°C50 %758 мм2.4 м/с2 %
    21:00Практически безоблачно+13°C69 %758 мм1.7 м/с2 %
  • 19мая
    Воскресенье
    +9°
    +20°
    Небольшая облачность
    ВремяПогодаТемператураВлажностьДавлениеВетер, м/сВероятность осадков
    00:00Ясно и безоблачно+11°C83 %757 мм1.6 м/с2 %
    03:00Ясно и безоблачно+10°C88 %757 мм1.6 м/с2 %
    06:00Ясно и безоблачно+11°C83 %757 мм1.5 м/с1 %
    09:00Ясно и безоблачно+17°C56 %758 мм3.0 м/с2 %
    12:00Облачно с прояснениями+19°C45 %757 мм2.9 м/с5 %
    15:00Небольшая облачность+20°C47 %757 мм2.3 м/с18 %
    18:00Небольшая облачность+18°C54 %756 мм1.7 м/с31 %
    21:00Практически безоблачно+15°C68 %757 мм0.8 м/с5 %
  • 20мая
    Понедельник
    +11°
    +22°
    Ясно и безоблачно
    ВремяПогодаТемператураВлажностьДавлениеВетер, м/сВероятность осадков
    00:00Ясно и безоблачно+11°C91 %757 мм1.3 м/с2 %
    03:00Ясно и безоблачно+11°C92 %757 мм1.2 м/с2 %
    06:00Ясно и безоблачно+13°C86 %757 мм1.2 м/с2 %
    09:00Ясно и безоблачно+19°C54 %758 мм1.9 м/с2 %
    12:00Практически безоблачно+21°C44 %758 мм2.4 м/с14 %
    15:00Ясно и безоблачно+22°C43 %758 мм2.3 м/с9 %
    18:00Ясно и безоблачно+20°C47 %757 мм2.1 м/с4 %
    21:00Ясно и безоблачно+16°C63 %758 мм1.7 м/с2 %
  • 21мая
    Вторник
    +11°
    +24°
    Ясно и безоблачно
    ВремяПогодаТемператураВлажностьДавлениеВетер, м/сВероятность осадков
    00:00Ясно и безоблачно+14°C73 %758 мм1.8 м/с2 %
    03:00Ясно и безоблачно+13°C80 %758 мм1.7 м/с2 %
    06:00Ясно и безоблачно+12°C69 %759 мм1.8 м/с2 %
    09:00Ясно и безоблачно+20°C52 %760 мм3.2 м/с2 %
    12:00Ясно и безоблачно+23°C35 %760 мм3.6 м/с2 %
    15:00Ясно и безоблачно+24°C33 %759 мм3.7 м/с2 %
    18:00Ясно и безоблачно+23°C39 %758 мм2.4 м/с2 %
    21:00Ясно и безоблачно+16°C55 %759 мм2.2 м/с2 %
  • 22мая
    Среда
    +11°
    +24°
    Ясно и безоблачно
    ВремяПогодаТемператураВлажностьДавлениеВетер, м/сВероятность осадков
    00:00Ясно и безоблачно+14°C56 %758 мм2.4 м/с2 %
    03:00Ясно и безоблачно+12°C59 %758 мм2.4 м/с2 %
    06:00Ясно и безоблачно+13°C64 %758 мм2.3 м/с2 %
    09:00Практически безоблачно+19°C49 %759 мм4.3 м/с2 %
    12:00Ясно и безоблачно+24°C32 %758 мм5.2 м/с2 %
    15:00Ясно и безоблачно+24°C30 %757 мм5.3 м/с2 %
    18:00Ясно и безоблачно+23°C35 %756 мм3.9 м/с2 %
    21:00Ясно и безоблачно+18°C39 %756 мм2.6 м/с2 %
Мы используем cookies
Соглашаюсь